Time;durP1;ratioP1;P1;durP2;ratioP2;P2;SDS_P1;SDS_P2;PMS_P1;PMS_P2;Temp;Humidity;BMP_temperature;BMP_pressure;BME280_temperature;BME280_humidity;BME280_pressure;Samples;Min_cycle;Max_cycle;Signal;HPM_P1;HPM_P2
2023/08/09 00:00:16;;;;;;;3.00;1.48;;;19.10;59.20;;;;;;5019210;28;20061;-44
2023/08/09 00:02:43;;;;;;;2.55;1.40;;;19.10;59.20;;;;;;5021005;28;20425;-46
2023/08/09 00:05:10;;;;;;;2.38;1.35;;;19.10;59.30;;;;;;5021658;28;20060;-47
2023/08/09 00:07:37;;;;;;;3.42;1.50;;;19.10;59.30;;;;;;5022075;28;20064;-44
2023/08/09 00:10:05;;;;;;;2.60;1.30;;;19.10;59.30;;;;;;5020673;28;20057;-48
2023/08/09 00:12:34;;;;;;;2.05;1.45;;;19.10;59.40;;;;;;5019154;28;20049;-47
2023/08/09 00:15:01;;;;;;;2.28;1.27;;;19.10;59.50;;;;;;5022497;28;20045;-50
2023/08/09 00:17:28;;;;;;;2.40;1.50;;;19.10;59.50;;;;;;5021289;28;20409;-47
2023/08/09 00:19:56;;;;;;;3.90;1.40;;;19.10;59.50;;;;;;5019853;28;20069;-46
2023/08/09 00:22:23;;;;;;;2.17;1.50;;;19.10;59.60;;;;;;5019448;28;20485;-46
2023/08/09 00:24:50;;;;;;;2.88;1.35;;;19.10;59.60;;;;;;5020784;28;20053;-44
2023/08/09 00:27:17;;;;;;;3.10;1.30;;;19.10;59.60;;;;;;5019753;28;20049;-44
2023/08/09 00:29:46;;;;;;;4.05;1.50;;;19.10;59.70;;;;;;5020998;28;20061;-46
2023/08/09 00:32:14;;;;;;;3.50;1.50;;;19.10;59.80;;;;;;5020085;28;20050;-47
2023/08/09 00:34:41;;;;;;;2.42;1.73;;;19.10;59.80;;;;;;5021735;28;20100;-45
2023/08/09 00:37:09;;;;;;;2.38;1.48;;;19.10;59.80;;;;;;5018696;28;20057;-45
2023/08/09 00:39:36;;;;;;;2.38;1.30;;;19.10;59.80;;;;;;5021580;28;20053;-45
2023/08/09 00:42:04;;;;;;;2.97;1.58;;;19.10;59.80;;;;;;5017734;28;20382;-45
2023/08/09 00:44:31;;;;;;;1.98;1.20;;;19.10;59.90;;;;;;5021114;28;20053;-44
2023/08/09 00:47:00;;;;;;;3.53;1.70;;;19.00;59.90;;;;;;5017604;28;20053;-56
2023/08/09 00:49:27;;;;;;;3.08;1.50;;;19.00;60.00;;;;;;5022085;28;20061;-56
2023/08/09 00:51:54;;;;;;;2.05;1.23;;;19.00;60.00;;;;;;5019820;28;20053;-48
2023/08/09 00:54:22;;;;;;;4.38;1.55;;;19.00;60.00;;;;;;5020845;28;20050;-53
2023/08/09 00:56:50;;;;;;;3.05;1.60;;;19.00;60.80;;;;;;5016597;28;20060;-56
2023/08/09 00:59:57;;;;;;;2.35;1.60;;;19.00;60.20;;;;;;5020351;28;20053;-57
2023/08/09 01:04:53;;;;;;;3.45;1.65;;;19.00;60.30;;;;;;5043992;22;20042;-58
2023/08/09 01:07:30;;;;;;;2.88;1.30;;;19.00;60.30;;;;;;5024129;28;20277;-58
2023/08/09 01:10:03;;;;;;;3.83;1.60;;;19.00;60.50;;;;;;5025084;28;20057;-57
2023/08/09 01:12:35;;;;;;;2.33;1.00;;;19.00;60.50;;;;;;5023319;28;20057;-59
2023/08/09 01:15:04;;;;;;;4.10;1.58;;;19.00;60.40;;;;;;5024493;28;20044;-58
2023/08/09 01:17:34;;;;;;;1.88;1.40;;;19.00;60.40;;;;;;5023541;28;20496;-58
2023/08/09 01:20:04;;;;;;;1.85;1.42;;;19.00;60.50;;;;;;5024418;28;20488;-59
2023/08/09 01:22:33;;;;;;;1.95;1.08;;;19.00;60.50;;;;;;5025156;28;20066;-57
2023/08/09 01:25:06;;;;;;;1.70;1.30;;;19.00;60.50;;;;;;5025767;28;20052;-58
2023/08/09 01:27:34;;;;;;;3.13;1.70;;;19.00;60.60;;;;;;5023110;28;20497;-57
2023/08/09 01:30:04;;;;;;;3.35;1.42;;;19.00;60.60;;;;;;5024986;28;20424;-58
2023/08/09 01:32:32;;;;;;;2.47;1.30;;;19.00;60.60;;;;;;5024378;28;20061;-58
2023/08/09 01:35:00;;;;;;;2.80;1.40;;;19.00;60.60;;;;;;5024519;28;20049;-57
2023/08/09 01:37:30;;;;;;;4.95;1.30;;;19.00;60.70;;;;;;5025103;28;20522;-60
2023/08/09 01:39:59;;;;;;;2.55;1.20;;;19.00;60.90;;;;;;5025135;28;20053;-58
2023/08/09 01:42:29;;;;;;;3.22;1.00;;;19.00;61.00;;;;;;5023252;28;20060;-58
2023/08/09 01:44:57;;;;;;;2.25;1.00;;;19.00;61.20;;;;;;5023539;28;20054;-58
2023/08/09 01:47:24;;;;;;;2.10;1.10;;;19.00;61.30;;;;;;5024656;28;20057;-58
2023/08/09 01:49:51;;;;;;;2.35;1.10;;;19.00;61.30;;;;;;5024683;28;20061;-58
2023/08/09 01:52:40;;;;;;;2.08;0.80;;;19.00;61.50;;;;;;5024419;28;20428;-58
2023/08/09 01:55:08;;;;;;;1.33;1.00;;;19.00;61.80;;;;;;5022729;28;20057;-58
2023/08/09 01:57:37;;;;;;;0.82;0.80;;;19.00;61.70;;;;;;5022658;28;20059;-57
2023/08/09 02:00:08;;;;;;;1.38;0.90;;;19.00;61.80;;;;;;5024122;28;20481;-57
2023/08/09 02:02:35;;;;;;;1.42;0.90;;;19.00;61.90;;;;;;5023575;28;20057;-57
2023/08/09 02:05:03;;;;;;;3.50;1.00;;;19.00;61.90;;;;;;5024125;28;20056;-58
2023/08/09 02:07:30;;;;;;;2.88;0.90;;;19.00;62.10;;;;;;5023579;28;20048;-60
2023/08/09 02:09:57;;;;;;;3.60;1.20;;;19.00;62.20;;;;;;5024361;28;20064;-60
2023/08/09 02:12:25;;;;;;;2.25;0.80;;;19.00;62.40;;;;;;5021684;28;20053;-60
2023/08/09 02:14:53;;;;;;;1.10;0.95;;;19.00;62.40;;;;;;5023395;28;20053;-60
2023/08/09 02:17:21;;;;;;;1.10;0.88;;;19.00;62.60;;;;;;5023559;28;20464;-60
2023/08/09 02:19:49;;;;;;;2.58;1.00;;;19.00;62.60;;;;;;5023565;28;20064;-60
2023/08/09 02:22:18;;;;;;;1.42;0.80;;;19.00;62.70;;;;;;5022966;28;20053;-59
2023/08/09 02:24:45;;;;;;;1.38;0.73;;;19.00;62.70;;;;;;5022564;28;20958;-60
2023/08/09 02:27:13;;;;;;;2.03;0.77;;;19.00;62.80;;;;;;5021989;28;20075;-58
2023/08/09 02:29:40;;;;;;;1.20;0.88;;;19.00;62.80;;;;;;5023632;28;20064;-60
2023/08/09 02:32:09;;;;;;;2.58;1.10;;;19.00;62.90;;;;;;5021873;28;20057;-59
2023/08/09 02:34:36;;;;;;;1.30;0.77;;;19.00;63.10;;;;;;5024809;28;20053;-60
2023/08/09 02:37:04;;;;;;;1.98;0.90;;;19.00;63.20;;;;;;5023082;28;20053;-60
2023/08/09 02:39:31;;;;;;;1.70;1.10;;;19.00;63.30;;;;;;5023468;28;20057;-61
2023/08/09 02:41:59;;;;;;;2.25;1.00;;;19.00;63.40;;;;;;5020596;28;20087;-60
2023/08/09 02:44:26;;;;;;;0.98;0.80;;;19.00;63.40;;;;;;5022602;28;20065;-61
2023/08/09 02:46:54;;;;;;;3.40;0.85;;;19.00;63.50;;;;;;5023625;28;20053;-59
2023/08/09 02:49:22;;;;;;;1.33;0.70;;;19.00;63.60;;;;;;5023094;28;20068;-60
2023/08/09 02:51:49;;;;;;;1.23;0.80;;;19.00;63.70;;;;;;5022992;28;20437;-60
2023/08/09 02:54:17;;;;;;;1.40;1.00;;;19.00;63.70;;;;;;5024264;28;20429;-61
2023/08/09 02:56:44;;;;;;;0.88;0.80;;;19.00;63.90;;;;;;5023250;28;20045;-63
2023/08/09 02:59:11;;;;;;;2.17;0.95;;;19.00;63.90;;;;;;5023109;28;20413;-61
2023/08/09 03:01:38;;;;;;;1.23;0.93;;;19.00;64.00;;;;;;5022218;28;20060;-61
2023/08/09 03:04:06;;;;;;;0.82;0.80;;;19.00;64.00;;;;;;5022719;28;20799;-62
2023/08/09 03:06:34;;;;;;;2.25;0.90;;;19.00;64.00;;;;;;5022656;28;20053;-61
2023/08/09 03:09:02;;;;;;;1.20;0.90;;;19.00;64.20;;;;;;5023177;28;20053;-61
2023/08/09 03:11:29;;;;;;;1.08;0.80;;;19.00;64.20;;;;;;5022135;28;20057;-61
2023/08/09 03:13:56;;;;;;;1.27;1.17;;;19.00;64.30;;;;;;5023644;28;20492;-63
2023/08/09 03:16:24;;;;;;;3.63;1.48;;;19.00;64.40;;;;;;5022124;28;20084;-62
2023/08/09 03:18:51;;;;;;;3.00;1.40;;;19.00;64.50;;;;;;5023603;28;20488;-58
2023/08/09 03:21:19;;;;;;;2.45;1.10;;;19.00;64.90;;;;;;5022650;28;20076;-56
2023/08/09 03:23:47;;;;;;;0.60;0.60;;;19.00;65.00;;;;;;5022864;28;20045;-59
2023/08/09 03:26:15;;;;;;;1.52;0.60;;;18.90;65.50;;;;;;5021762;28;20405;-50
2023/08/09 03:28:43;;;;;;;1.35;0.77;;;18.80;64.90;;;;;;5022333;28;20053;-62
2023/08/09 03:31:10;;;;;;;0.73;0.57;;;18.60;65.20;;;;;;5022461;28;20049;-58
2023/08/09 03:33:37;;;;;;;2.92;0.95;;;18.50;65.80;;;;;;5022621;28;20056;-60
2023/08/09 03:36:06;;;;;;;0.75;0.70;;;18.30;66.60;;;;;;5022134;28;20050;-63
2023/08/09 03:38:33;;;;;;;0.85;0.65;;;18.20;67.20;;;;;;5021832;28;20076;-60
2023/08/09 03:41:02;;;;;;;1.42;0.90;;;18.10;67.90;;;;;;5022494;28;20127;-62
2023/08/09 03:43:29;;;;;;;2.03;1.05;;;18.00;68.70;;;;;;5021850;28;20386;-64
2023/08/09 03:45:56;;;;;;;2.58;0.85;;;17.90;69.20;;;;;;5023417;28;20050;-60
2023/08/09 03:48:24;;;;;;;1.25;1.10;;;17.80;70.10;;;;;;5022892;28;20269;-58
2023/08/09 03:50:51;;;;;;;3.78;0.90;;;17.70;70.30;;;;;;5023172;28;20493;-58
2023/08/09 03:53:18;;;;;;;3.15;1.00;;;17.60;70.80;;;;;;5024184;28;20049;-64
2023/08/09 03:55:46;;;;;;;3.17;0.88;;;17.50;71.10;;;;;;5025971;28;20057;-54
2023/08/09 03:58:14;;;;;;;1.10;0.70;;;17.50;71.30;;;;;;5025447;28;20056;-64
2023/08/09 04:00:42;;;;;;;2.05;1.08;;;17.40;71.70;;;;;;5026531;28;20046;-61
2023/08/09 04:03:09;;;;;;;1.08;0.90;;;17.30;72.20;;;;;;5027312;28;20528;-67
2023/08/09 04:05:36;;;;;;;2.38;1.05;;;17.30;72.80;;;;;;5026257;28;20052;-67
2023/08/09 04:08:06;;;;;;;1.48;1.10;;;17.20;73.10;;;;;;5026506;28;20489;-66
2023/08/09 04:10:34;;;;;;;1.30;1.00;;;17.20;73.60;;;;;;5025820;28;20057;-66
2023/08/09 04:13:02;;;;;;;2.38;1.25;;;17.10;74.10;;;;;;5024990;28;20493;-65
2023/08/09 04:15:31;;;;;;;2.28;1.10;;;17.10;74.40;;;;;;5026176;28;20058;-63
2023/08/09 04:17:58;;;;;;;2.08;1.10;;;17.10;74.80;;;;;;5025013;28;20045;-65
2023/08/09 04:20:26;;;;;;;2.17;1.40;;;17.10;75.00;;;;;;5027004;28;20907;-65
2023/08/09 04:22:54;;;;;;;1.30;1.20;;;17.10;75.30;;;;;;5026032;28;20378;-67
2023/08/09 04:25:22;;;;;;;1.98;1.40;;;17.00;75.50;;;;;;5024482;28;20068;-64
2023/08/09 04:27:49;;;;;;;2.47;1.40;;;17.00;75.80;;;;;;5023210;28;20072;-68
2023/08/09 04:30:16;;;;;;;3.33;1.40;;;17.00;76.00;;;;;;5025263;28;20057;-66
2023/08/09 04:32:45;;;;;;;2.67;1.50;;;16.90;76.10;;;;;;5026110;28;20057;-66
2023/08/09 04:35:12;;;;;;;3.25;1.00;;;16.90;76.40;;;;;;5025611;28;20386;-66
2023/08/09 04:37:40;;;;;;;4.40;1.33;;;16.90;76.50;;;;;;5025636;28;20073;-64
2023/08/09 04:40:10;;;;;;;5.78;1.35;;;16.90;76.70;;;;;;5026298;28;20049;-63
2023/08/09 04:42:39;;;;;;;1.63;1.00;;;16.90;76.80;;;;;;5026076;28;20523;-64
2023/08/09 04:45:09;;;;;;;2.00;1.20;;;16.90;77.00;;;;;;5025692;28;20049;-65
2023/08/09 04:47:36;;;;;;;1.65;1.35;;;17.00;77.30;;;;;;5025342;28;20057;-64
2023/08/09 04:50:07;;;;;;;1.10;1.00;;;17.00;77.90;;;;;;5026186;28;20041;-64
2023/08/09 04:52:35;;;;;;;1.35;1.25;;;17.00;77.40;;;;;;5025738;28;20500;-63
2023/08/09 04:55:03;;;;;;;1.13;1.02;;;17.10;77.50;;;;;;5026013;28;20049;-63
2023/08/09 04:57:31;;;;;;;1.67;1.38;;;17.10;77.50;;;;;;5023129;28;20050;-65
2023/08/09 04:59:59;;;;;;;2.00;1.40;;;17.10;77.50;;;;;;5025995;28;20416;-63
2023/08/09 05:02:26;;;;;;;1.40;1.30;;;17.20;77.50;;;;;;5025691;28;20057;-62
2023/08/09 05:04:53;;;;;;;1.98;1.40;;;17.20;77.40;;;;;;5024685;28;20053;-66
2023/08/09 05:07:22;;;;;;;2.08;1.45;;;17.30;77.50;;;;;;5024984;28;20460;-63
2023/08/09 05:09:49;;;;;;;1.35;1.25;;;17.40;77.50;;;;;;5025850;28;20504;-65
2023/08/09 05:12:16;;;;;;;1.25;1.10;;;17.40;77.30;;;;;;5024004;28;20057;-64
2023/08/09 05:14:43;;;;;;;1.27;1.10;;;17.40;77.40;;;;;;5024653;28;20053;-64
2023/08/09 05:17:11;;;;;;;4.53;2.30;;;17.50;77.60;;;;;;5024258;28;20497;-63
2023/08/09 05:19:47;;;;;;;1.70;1.55;;;17.50;77.70;;;;;;5024566;28;20057;-63
2023/08/09 05:22:14;;;;;;;1.92;1.52;;;17.60;77.80;;;;;;5023654;28;20061;-63
2023/08/09 05:24:43;;;;;;;1.25;1.00;;;17.60;77.50;;;;;;5025060;28;20057;-63
2023/08/09 05:27:10;;;;;;;1.75;1.00;;;17.60;77.60;;;;;;5024352;28;20049;-63
2023/08/09 05:29:37;;;;;;;1.02;0.98;;;17.70;77.40;;;;;;5025575;28;20420;-62
2023/08/09 05:32:04;;;;;;;0.70;0.57;;;17.70;77.30;;;;;;5026280;28;20519;-62
2023/08/09 05:34:32;;;;;;;0.73;0.73;;;17.80;77.50;;;;;;5023786;28;20061;-63
2023/08/09 05:37:01;;;;;;;1.05;0.60;;;17.80;77.30;;;;;;5025651;28;20053;-62
2023/08/09 05:39:28;;;;;;;1.17;0.88;;;17.80;77.10;;;;;;5026312;28;20057;-68
2023/08/09 05:41:57;;;;;;;1.00;0.90;;;17.90;77.10;;;;;;5024410;28;20378;-67
2023/08/09 05:44:26;;;;;;;1.27;1.17;;;17.90;76.80;;;;;;5024951;28;20080;-67
2023/08/09 05:46:54;;;;;;;1.55;0.95;;;17.90;76.60;;;;;;5024761;28;20064;-67
2023/08/09 05:49:22;;;;;;;1.05;0.95;;;17.90;76.70;;;;;;5024618;28;20057;-66
2023/08/09 05:51:49;;;;;;;1.38;1.20;;;18.00;76.60;;;;;;5023474;28;20959;-66
2023/08/09 05:54:16;;;;;;;1.65;1.10;;;18.00;76.50;;;;;;5025645;28;20440;-70
2023/08/09 05:56:44;;;;;;;1.17;1.00;;;18.00;76.10;;;;;;5022894;28;20064;-67
2023/08/09 05:59:12;;;;;;;1.92;1.15;;;18.00;75.50;;;;;;5024973;28;20049;-66
2023/08/09 06:01:39;;;;;;;1.13;1.02;;;18.00;75.50;;;;;;5024520;28;20061;-66
2023/08/09 06:04:07;;;;;;;1.40;0.90;;;18.00;75.50;;;;;;5023714;28;20072;-66
2023/08/09 06:06:35;;;;;;;1.55;1.00;;;18.00;75.60;;;;;;5024133;28;20057;-65
2023/08/09 06:09:05;;;;;;;1.45;1.17;;;18.00;75.50;;;;;;5024721;28;20113;-66
2023/08/09 06:11:32;;;;;;;1.00;0.95;;;18.10;75.40;;;;;;5022009;28;20053;-66
2023/08/09 06:14:00;;;;;;;1.60;1.40;;;18.10;75.50;;;;;;5024768;28;20493;-66
2023/08/09 06:16:28;;;;;;;2.08;1.40;;;18.10;75.60;;;;;;5024093;28;20065;-66
2023/08/09 06:18:55;;;;;;;2.28;1.52;;;18.10;75.70;;;;;;5025692;28;20405;-68
2023/08/09 06:21:23;;;;;;;2.42;1.60;;;18.20;75.70;;;;;;5023791;28;20523;-67
2023/08/09 06:23:50;;;;;;;1.77;1.67;;;18.20;75.40;;;;;;5024204;28;20084;-67
2023/08/09 06:26:17;;;;;;;2.17;1.90;;;18.30;75.00;;;;;;5022613;28;20508;-65
2023/08/09 06:28:44;;;;;;;2.78;1.75;;;18.20;74.10;;;;;;5023136;28;20053;-65
2023/08/09 06:31:11;;;;;;;2.40;1.48;;;18.20;73.70;;;;;;5024081;28;20076;-65
2023/08/09 06:33:42;;;;;;;2.05;1.70;;;18.20;74.10;;;;;;5023463;28;20056;-66
2023/08/09 06:36:10;;;;;;;1.95;1.20;;;18.30;73.60;;;;;;5024032;28;20053;-68
2023/08/09 06:38:37;;;;;;;1.90;1.40;;;18.30;73.00;;;;;;5023315;28;20289;-66
2023/08/09 06:41:04;;;;;;;1.83;1.08;;;18.30;72.60;;;;;;5023414;28;20053;-65
2023/08/09 06:43:31;;;;;;;1.52;1.10;;;18.30;72.10;;;;;;5023656;28;20059;-66
2023/08/09 06:45:59;;;;;;;2.55;1.80;;;18.30;71.80;;;;;;5024556;28;20053;-66
2023/08/09 06:48:29;;;;;;;2.72;1.80;;;18.30;71.90;;;;;;5024038;28;20049;-62
2023/08/09 06:50:58;;;;;;;5.93;2.10;;;18.30;71.20;;;;;;5024191;28;20049;-60
2023/08/09 06:53:25;;;;;;;8.85;2.33;;;18.30;70.10;;;;;;5023995;28;20061;-64
2023/08/09 06:55:53;;;;;;;2.88;1.90;;;18.30;68.80;;;;;;5023560;28;20053;-63
2023/08/09 06:58:21;;;;;;;2.75;1.42;;;18.30;68.60;;;;;;5021966;28;20046;-62
2023/08/09 07:00:48;;;;;;;2.95;1.70;;;18.30;67.30;;;;;;5022222;28;20424;-62
2023/08/09 07:03:16;;;;;;;2.47;1.58;;;18.20;67.00;;;;;;5023267;28;20053;-63
2023/08/09 07:05:43;;;;;;;4.75;1.63;;;18.30;67.30;;;;;;5022145;28;20049;-62
2023/08/09 07:08:12;;;;;;;2.97;1.70;;;18.20;67.00;;;;;;5023046;28;20061;-62
2023/08/09 07:10:39;;;;;;;3.55;2.00;;;18.20;67.50;;;;;;5024575;28;20053;-62
2023/08/09 07:13:06;;;;;;;5.53;2.35;;;18.20;68.10;;;;;;5021506;28;20485;-61
2023/08/09 07:15:34;;;;;;;3.60;1.92;;;18.20;67.20;;;;;;5024131;28;20053;-61
2023/08/09 07:18:01;;;;;;;4.50;2.42;;;18.30;67.20;;;;;;5022102;28;20050;-62
2023/08/09 07:20:28;;;;;;;4.60;1.80;;;18.20;67.40;;;;;;5023541;28;20061;-65
2023/08/09 07:22:55;;;;;;;2.63;1.85;;;18.30;67.00;;;;;;5023919;28;20079;-63
2023/08/09 07:25:24;;;;;;;3.38;1.70;;;18.30;67.60;;;;;;5024225;28;20405;-66
2023/08/09 07:27:52;;;;;;;4.10;1.60;;;18.30;68.30;;;;;;5025556;28;20049;-63
2023/08/09 07:30:19;;;;;;;4.45;1.60;;;18.30;66.90;;;;;;5026837;28;20045;-64
2023/08/09 07:32:47;;;;;;;3.53;1.73;;;18.30;67.40;;;;;;5025692;28;20052;-64
2023/08/09 07:35:16;;;;;;;3.22;1.77;;;18.30;65.80;;;;;;5026607;28;20057;-63
2023/08/09 07:37:45;;;;;;;4.78;1.70;;;18.30;65.80;;;;;;5025954;28;20053;-66
2023/08/09 07:40:14;;;;;;;2.60;1.42;;;18.30;65.10;;;;;;5026036;28;20057;-63
2023/08/09 07:42:43;;;;;;;2.65;1.60;;;18.30;64.90;;;;;;5026052;28;20056;-62
2023/08/09 07:45:11;;;;;;;1.70;1.27;;;18.30;64.30;;;;;;5027074;28;20054;-62
2023/08/09 07:47:39;;;;;;;4.97;1.60;;;18.30;63.40;;;;;;5026939;28;20059;-62
2023/08/09 07:50:08;;;;;;;2.75;1.48;;;18.30;62.60;;;;;;5026127;28;20053;-64
2023/08/09 07:52:35;;;;;;;3.33;1.77;;;18.30;62.70;;;;;;5025862;28;20054;-65
2023/08/09 07:55:04;;;;;;;3.55;1.67;;;18.30;63.80;;;;;;5025969;28;20053;-64
2023/08/09 07:57:33;;;;;;;2.65;1.50;;;18.40;64.40;;;;;;5024476;28;20060;-64
2023/08/09 08:00:03;;;;;;;3.80;1.80;;;18.50;62.90;;;;;;5026636;28;20493;-65
2023/08/09 08:02:30;;;;;;;4.13;1.58;;;18.50;62.60;;;;;;5026279;28;20065;-66
2023/08/09 08:04:57;;;;;;;2.05;1.80;;;18.50;62.80;;;;;;5026245;28;20053;-64
2023/08/09 08:07:24;;;;;;;4.18;1.75;;;18.60;63.30;;;;;;5026714;28;20060;-62
2023/08/09 08:09:52;;;;;;;2.22;1.65;;;18.60;63.10;;;;;;5026780;28;20049;-63
2023/08/09 08:12:21;;;;;;;4.10;1.60;;;18.70;63.80;;;;;;5025308;28;20057;-63
2023/08/09 08:14:49;;;;;;;5.57;1.80;;;18.70;62.20;;;;;;5026835;28;20137;-64
2023/08/09 08:17:17;;;;;;;3.33;1.88;;;18.70;61.50;;;;;;5027214;28;20437;-64
2023/08/09 08:19:45;;;;;;;3.30;1.42;;;18.70;60.50;;;;;;5026944;28;20493;-63
2023/08/09 08:22:13;;;;;;;3.30;1.63;;;18.70;60.20;;;;;;5026427;28;20069;-63
2023/08/09 08:24:40;;;;;;;3.80;1.58;;;18.70;60.40;;;;;;5025674;28;20057;-64
2023/08/09 08:27:07;;;;;;;3.08;1.48;;;18.70;59.80;;;;;;5024565;28;20405;-63
2023/08/09 08:29:34;;;;;;;2.35;1.38;;;18.70;60.00;;;;;;5026974;28;20045;-64
2023/08/09 08:32:02;;;;;;;3.50;1.27;;;18.70;59.60;;;;;;5025715;28;20061;-64
2023/08/09 08:34:31;;;;;;;3.95;1.77;;;18.70;59.10;;;;;;5026848;28;20061;-64
2023/08/09 08:36:59;;;;;;;4.80;1.40;;;18.60;58.70;;;;;;5025345;28;20484;-63
2023/08/09 08:39:28;;;;;;;3.20;1.40;;;18.60;58.40;;;;;;5024970;28;20049;-63
2023/08/09 08:41:56;;;;;;;3.38;1.67;;;18.60;58.70;;;;;;5024137;28;20060;-63
2023/08/09 08:44:24;;;;;;;1.63;1.42;;;18.60;58.60;;;;;;5025312;28;20080;-63
2023/08/09 08:46:51;;;;;;;3.70;1.25;;;18.60;58.50;;;;;;5025735;28;20057;-61
2023/08/09 08:49:21;;;;;;;1.63;1.27;;;18.60;58.50;;;;;;5026915;28;20485;-61
2023/08/09 08:51:54;;;;;;;2.35;1.30;;;18.60;57.40;;;;;;5026143;28;20053;-63
2023/08/09 08:54:22;;;;;;;3.13;1.20;;;18.70;57.70;;;;;;5026824;28;20515;-63
2023/08/09 08:56:49;;;;;;;3.33;1.23;;;18.70;58.10;;;;;;5025762;28;20789;-62
2023/08/09 08:59:17;;;;;;;1.42;1.00;;;18.80;58.30;;;;;;5025181;28;20767;-62
2023/08/09 09:01:44;;;;;;;2.30;1.40;;;18.80;57.60;;;;;;5024492;28;20064;-63
2023/08/09 09:04:12;;;;;;;2.22;1.10;;;18.90;57.70;;;;;;5026222;28;20061;-63
2023/08/09 09:06:39;;;;;;;1.60;0.95;;;18.90;58.00;;;;;;5025946;28;20058;-63
2023/08/09 09:09:13;;;;;;;1.30;1.20;;;19.00;58.50;;;;;;5024991;28;20041;-63
2023/08/09 09:11:40;;;;;;;2.95;1.55;;;19.00;58.50;;;;;;5023670;28;20062;-62
2023/08/09 09:14:11;;;;;;;4.35;1.20;;;19.10;58.50;;;;;;5024400;28;20058;-62
2023/08/09 09:16:38;;;;;;;1.45;1.13;;;19.20;58.00;;;;;;5025496;28;20064;-63
2023/08/09 09:19:06;;;;;;;1.38;1.08;;;19.30;58.20;;;;;;5024242;28;20052;-63
2023/08/09 09:21:35;;;;;;;2.03;1.30;;;19.30;58.20;;;;;;5025425;28;20046;-62
2023/08/09 09:24:07;;;;;;;1.67;1.00;;;19.40;58.40;;;;;;5024988;28;20049;-63
2023/08/09 09:26:37;;;;;;;2.33;1.50;;;19.40;58.30;;;;;;5025348;28;20060;-66
2023/08/09 09:29:07;;;;;;;2.63;1.08;;;19.50;55.90;;;;;;5024101;28;20061;-64
2023/08/09 09:31:36;;;;;;;2.25;1.45;;;19.50;55.50;;;;;;5024028;28;20064;-64
2023/08/09 09:34:06;;;;;;;2.50;1.13;;;19.60;54.30;;;;;;5024847;28;20057;-65
2023/08/09 09:36:33;;;;;;;1.15;0.77;;;19.50;53.90;;;;;;5024016;28;20064;-62
2023/08/09 09:39:00;;;;;;;1.90;1.10;;;19.60;54.20;;;;;;5023848;28;20065;-63
2023/08/09 09:41:28;;;;;;;2.13;1.17;;;19.60;54.40;;;;;;5024172;28;20057;-62
2023/08/09 09:43:56;;;;;;;3.25;1.17;;;19.60;54.60;;;;;;5025703;28;20053;-63
2023/08/09 09:46:25;;;;;;;1.50;0.90;;;19.60;51.80;;;;;;5024313;28;20053;-63
2023/08/09 09:49:00;;;;;;;1.55;0.90;;;19.60;52.20;;;;;;5024535;28;20059;-62
2023/08/09 09:51:28;;;;;;;1.52;0.90;;;19.70;52.70;;;;;;5024433;28;20061;-62
2023/08/09 09:53:55;;;;;;;2.00;1.00;;;19.70;53.40;;;;;;5024614;28;20049;-68
2023/08/09 09:56:23;;;;;;;1.77;0.98;;;19.80;54.00;;;;;;5023233;28;20413;-62
2023/08/09 09:58:50;;;;;;;2.55;0.93;;;19.80;52.70;;;;;;5025444;28;20437;-62
2023/08/09 10:01:22;;;;;;;1.40;1.10;;;19.80;53.20;;;;;;5024653;28;20056;-62
2023/08/09 10:03:53;;;;;;;2.08;1.20;;;19.90;53.80;;;;;;5024189;28;20053;-65
2023/08/09 10:06:23;;;;;;;3.47;1.83;;;19.90;54.30;;;;;;5025077;28;20049;-67
2023/08/09 10:08:52;;;;;;;4.03;1.40;;;19.90;53.50;;;;;;5024951;28;20515;-65
2023/08/09 10:11:22;;;;;;;2.58;1.13;;;20.00;54.10;;;;;;5023712;28;20061;-65
2023/08/09 10:13:50;;;;;;;3.30;1.20;;;20.00;53.70;;;;;;5023687;28;20049;-67
2023/08/09 10:16:22;;;;;;;2.20;1.60;;;20.00;53.00;;;;;;5023672;28;20052;-62
2023/08/09 10:18:58;;;;;;;2.67;1.13;;;20.00;53.30;;;;;;5025156;28;20152;-62
2023/08/09 10:21:26;;;;;;;2.97;1.10;;;20.00;53.20;;;;;;5025215;28;20053;-62
2023/08/09 10:23:57;;;;;;;2.53;1.10;;;20.10;53.50;;;;;;5024105;28;20053;-61
2023/08/09 10:26:31;;;;;;;3.17;1.00;;;20.10;53.50;;;;;;5023187;28;20056;-62
2023/08/09 10:29:06;;;;;;;1.73;1.10;;;20.20;53.50;;;;;;5025377;28;20053;-62
2023/08/09 10:31:54;;;;;;;4.22;1.40;;;20.20;53.80;;;;;;5023466;28;20408;-62
2023/08/09 10:34:24;;;;;;;1.55;1.00;;;20.30;52.20;;;;;;5024807;28;20053;-62
2023/08/09 10:36:54;;;;;;;1.80;1.05;;;20.30;51.40;;;;;;5024185;28;20061;-63
2023/08/09 10:39:24;;;;;;;2.03;1.17;;;20.30;52.20;;;;;;5023861;28;20053;-61
2023/08/09 10:41:55;;;;;;;2.42;1.27;;;20.40;52.50;;;;;;5022100;28;20464;-62
2023/08/09 10:44:33;;;;;;;2.05;0.90;;;20.40;51.80;;;;;;5024328;28;20052;-62
2023/08/09 10:47:07;;;;;;;2.45;1.00;;;20.40;51.30;;;;;;5024511;28;20053;-63
2023/08/09 10:49:44;;;;;;;1.83;1.13;;;20.50;51.30;;;;;;5024609;28;20477;-64
2023/08/09 10:52:13;;;;;;;2.53;1.10;;;20.60;50.50;;;;;;5023904;28;20654;-62
2023/08/09 10:54:40;;;;;;;1.35;1.00;;;20.60;50.40;;;;;;5022696;28;20057;-63
2023/08/09 10:57:11;;;;;;;2.28;0.90;;;20.60;50.70;;;;;;5023106;28;20056;-61
2023/08/09 10:59:41;;;;;;;2.25;0.90;;;20.60;51.60;;;;;;5022834;28;20050;-61
2023/08/09 11:02:10;;;;;;;1.95;1.00;;;20.70;52.10;;;;;;5025421;28;20052;-62
2023/08/09 11:04:37;;;;;;;1.88;1.00;;;20.80;52.40;;;;;;5027351;28;20060;-62
2023/08/09 11:07:06;;;;;;;2.22;1.00;;;20.90;51.70;;;;;;5027938;28;20058;-61
2023/08/09 11:09:34;;;;;;;1.35;1.10;;;20.90;51.70;;;;;;5028173;28;20053;-61
2023/08/09 11:12:01;;;;;;;3.95;1.20;;;21.00;51.80;;;;;;5025728;28;20049;-62
2023/08/09 11:14:32;;;;;;;10.30;2.05;;;21.10;51.50;;;;;;5027291;28;20063;-64
2023/08/09 11:16:59;;;;;;;2.70;1.30;;;21.20;50.20;;;;;;5027772;28;20053;-63
2023/08/09 11:19:28;;;;;;;2.47;1.00;;;21.20;50.20;;;;;;5028770;28;20061;-62
2023/08/09 11:21:56;;;;;;;3.97;1.30;;;21.30;50.00;;;;;;5027464;28;20064;-63
2023/08/09 11:24:25;;;;;;;4.43;1.45;;;21.40;49.60;;;;;;5027678;28;20049;-62
2023/08/09 11:26:54;;;;;;;3.65;1.30;;;21.40;48.90;;;;;;5026367;28;20977;-62
2023/08/09 11:29:22;;;;;;;2.72;1.10;;;21.50;48.40;;;;;;5026849;28;20421;-61
2023/08/09 11:31:51;;;;;;;1.50;0.93;;;21.50;48.40;;;;;;5026392;28;20049;-60
2023/08/09 11:34:20;;;;;;;2.20;1.20;;;21.50;49.10;;;;;;5026694;28;20053;-62
2023/08/09 11:36:50;;;;;;;2.45;1.30;;;21.60;49.90;;;;;;5027570;28;20422;-65
2023/08/09 11:39:19;;;;;;;3.30;1.35;;;21.70;48.90;;;;;;5026670;28;20516;-62
2023/08/09 11:41:57;;;;;;;1.85;1.40;;;21.70;49.10;;;;;;5025961;28;20045;-62
2023/08/09 11:44:27;;;;;;;6.75;1.75;;;21.70;48.60;;;;;;5026853;28;20064;-62
2023/08/09 11:46:55;;;;;;;2.47;1.33;;;21.80;49.60;;;;;;5026618;28;20524;-63
2023/08/09 11:49:26;;;;;;;2.90;1.50;;;21.80;48.40;;;;;;5026255;28;20060;-63
2023/08/09 11:51:55;;;;;;;3.22;1.20;;;21.80;47.50;;;;;;5025664;28;20042;-61
2023/08/09 11:54:23;;;;;;;2.00;1.15;;;21.90;48.80;;;;;;5027605;28;20060;-62
2023/08/09 11:56:50;;;;;;;3.25;0.93;;;21.90;49.00;;;;;;5024381;28;20061;-63
2023/08/09 11:59:20;;;;;;;4.25;1.30;;;22.00;49.70;;;;;;5027817;28;20049;-65
2023/08/09 12:01:49;;;;;;;4.38;1.70;;;22.10;48.40;;;;;;5024770;28;20049;-62
2023/08/09 12:04:18;;;;;;;2.45;1.40;;;22.10;47.70;;;;;;5026304;28;20057;-62
2023/08/09 12:06:47;;;;;;;2.10;1.40;;;22.10;48.60;;;;;;5025866;28;20112;-62
2023/08/09 12:09:30;;;;;;;3.67;1.73;;;22.20;48.90;;;;;;5025688;28;20049;-63
2023/08/09 12:12:04;;;;;;;2.45;1.40;;;22.20;49.70;;;;;;5026048;28;20049;-61
2023/08/09 12:14:31;;;;;;;1.67;1.20;;;22.30;48.30;;;;;;5024247;28;20416;-61
2023/08/09 12:16:59;;;;;;;1.58;1.13;;;22.40;48.30;;;;;;5027494;28;20049;-61
2023/08/09 12:19:27;;;;;;;2.22;1.50;;;22.40;48.40;;;;;;5026691;28;20053;-61
2023/08/09 12:21:55;;;;;;;1.85;1.48;;;22.40;48.40;;;;;;5025053;28;20397;-59
2023/08/09 12:24:22;;;;;;;2.30;1.50;;;22.50;48.70;;;;;;5025887;28;20068;-65
2023/08/09 12:26:51;;;;;;;4.43;1.77;;;22.50;46.90;;;;;;5024932;28;20049;-62
2023/08/09 12:29:18;;;;;;;2.65;1.35;;;22.50;46.90;;;;;;5025935;28;20062;-65
2023/08/09 12:31:46;;;;;;;3.30;1.33;;;22.50;46.50;;;;;;5025635;28;20068;-63
2023/08/09 12:34:13;;;;;;;2.38;1.35;;;22.50;46.40;;;;;;5025622;28;20519;-63
2023/08/09 12:36:41;;;;;;;2.58;1.50;;;22.50;46.20;;;;;;5026632;28;20053;-62
2023/08/09 12:39:11;;;;;;;1.90;1.27;;;22.50;46.20;;;;;;5025579;28;20052;-61
2023/08/09 12:41:38;;;;;;;2.58;1.70;;;22.50;46.90;;;;;;5024829;28;20049;-62
2023/08/09 12:44:08;;;;;;;3.25;1.30;;;22.50;46.50;;;;;;5025817;28;20053;-61
2023/08/09 12:46:34;;;;;;;2.03;1.25;;;22.60;46.90;;;;;;5026453;28;20057;-60
2023/08/09 12:49:02;;;;;;;2.95;1.40;;;22.70;47.50;;;;;;5026238;28;20053;-60
2023/08/09 12:51:29;;;;;;;3.58;1.55;;;22.70;47.70;;;;;;5025141;28;20486;-61
2023/08/09 12:53:56;;;;;;;2.97;1.73;;;22.70;46.80;;;;;;5024761;28;20049;-63
2023/08/09 12:56:24;;;;;;;2.28;1.60;;;22.80;47.10;;;;;;5024460;28;20489;-61